African Loon — 3EFF9 — position and weather

sailwx.info

Track history (hours):
 
Tides and Currents Weather Stations Pressure Air Temp Water Temp Dewpoint Dewpoint Depression Visibility Wind Speed Wind Dir Waves Ship Positions

African Loon

Last reported at 2017-Jun-30 23:21 UTC. Time now 2017-Aug-21 01:02 UTC.
Position S 28°42' E 032°41'.
Warning: this ship's position is 51 days out of date.

Length 200 m; draft 11.5 m.

Type: Cargo ship. MMSI: 374319000.

Date/timePositionNaut miles runAvg speedWind from/ knotsBaromVisibWave heightAir tempDewpointWater temp
2017-Jun-30 23:21S 28°42' E 032°41'411.7
2017-Jun-30 23:00S 28°45' E 032°38'611.6
2017-Jun-30 22:30S 28°49' E 032°33'611.1
2017-Jun-30 22:00S 28°53' E 032°29'510.8
2017-Jun-30 21:30S 28°57' E 032°25'510.4
2017-Jun-30 21:00S 29°01' E 032°21'510.1
2017-Jun-30 20:30S 29°05' E 032°17'510.1
2017-Jun-30 20:00S 29°08' E 032°13'510.0
2017-Jun-30 19:31S 29°12' E 032°09'5 9.9
2017-Jun-30 19:01S 29°16' E 032°05'5 9.9
2017-Jun-30 18:30S 29°19' E 032°01'510.1
2017-Jun-30 18:00S 29°22' E 031°56'510.2
2017-Jun-30 17:31S 29°25' E 031°52'510.5
2017-Jun-30 17:00S 29°28' E 031°47'611.2
2017-Jun-30 16:30S 29°32' E 031°42'611.5
2017-Jun-30 16:00S 29°35' E 031°36'611.5
2017-Jun-30 15:30S 29°38' E 031°31'611.7
2017-Jun-30 15:01S 29°42' E 031°25'612.0
2017-Jun-30 14:30S 29°45' E 031°20'612.3
2017-Jun-30 14:01S 29°49' E 031°14'510.5
2017-Jun-30 13:31S 29°51' E 031°09'1 2.7
2017-Jun-30 13:01S 29°53' E 031°08'1 2.5
2017-Jun-30 12:30S 29°54' E 031°08'2 4.6
2017-Jun-30 12:00S 29°56' E 031°07'4 8.1
2017-Jun-30 11:31S 29°60' E 031°06'612.3
2017-Jun-30 11:00S 30°05' E 031°03'612.8
2017-Jun-30 10:30S 30°11' E 031°01'611.8
2017-Jun-30 10:00S 30°17' E 030°57'611.4
2017-Jun-30 09:30S 30°22' E 030°55'510.8
2017-Jun-30 09:00S 30°27' E 030°52'510.4
2017-Jun-30 08:30S 30°31' E 030°50'510.2
2017-Jun-30 07:59S 30°36' E 030°47'12 9.9
2017-Jun-30 06:46S 30°47' E 030°41'8 9.6
2017-Jun-30 05:54S 30°55' E 030°37'  
2017-Jun-27 05:32S 34°15' E 018°12'510.8
2017-Jun-27 05:03S 34°10' E 018°12'011.7
2017-Jun-27 05:01S 34°10' E 018°13'811.6
2017-Jun-27 04:18S 34°02' E 018°13'310.8
2017-Jun-27 04:00S 33°59' E 018°14'611.3
2017-Jun-27 03:30S 33°54' E 018°17'5 9.6
2017-Jun-27 03:00S 33°51' E 018°22'3 6.7
2017-Jun-27 02:30S 33°53' E 018°26'2 4.2
2017-Jun-27 02:00S 33°55' E 018°26'0 0.3
2017-Jun-27 01:25S 33°55' E 018°26'0 0.0
2017-Jun-27 00:58S 33°55' E 018°26'0 0.0
2017-Jun-27 00:28S 33°55' E 018°26'0 0.0
2017-Jun-26 23:58S 33°55' E 018°26'0 0.0
2017-Jun-26 23:28S 33°55' E 018°26'0 0.0
2017-Jun-26 22:58S 33°55' E 018°26'0 0.0
2017-Jun-26 22:28S 33°55' E 018°26'0 0.0
2017-Jun-26 21:58S 33°55' E 018°26'0 0.0
2017-Jun-26 21:28S 33°55' E 018°26'0 0.0
2017-Jun-26 20:58S 33°55' E 018°26'0 0.0
2017-Jun-26 20:28S 33°55' E 018°26'0 0.0
2017-Jun-26 19:58S 33°55' E 018°26'0 0.0
2017-Jun-26 19:28S 33°55' E 018°26'0 0.0
2017-Jun-26 18:58S 33°55' E 018°26'0 0.0
2017-Jun-26 18:28S 33°55' E 018°26'0 0.0
2017-Jun-26 17:58S 33°55' E 018°26'0 0.0
2017-Jun-26 17:28S 33°55' E 018°26'0 0.0
2017-Jun-26 16:58S 33°55' E 018°26'0 0.0
2017-Jun-26 16:28S 33°55' E 018°26'0 0.0
2017-Jun-26 15:55S 33°55' E 018°26'0 0.0
2017-Jun-26 15:25S 33°55' E 018°26'0 0.0
2017-Jun-26 14:58S 33°55' E 018°26'0 0.0
2017-Jun-26 14:28S 33°55' E 018°26'0 0.0
2017-Jun-26 13:28S 33°55' E 018°26'0 0.0
2017-Jun-26 12:55S 33°55' E 018°26'0 0.0
2017-Jun-26 12:25S 33°55' E 018°26'0 0.0
2017-Jun-26 11:58S 33°55' E 018°26'0 0.0
2017-Jun-26 11:25S 33°55' E 018°26'0 0.0
2017-Jun-26 10:58S 33°55' E 018°26'0 0.0
2017-Jun-26 10:28S 33°55' E 018°26'0 0.0
2017-Jun-26 09:58S 33°55' E 018°26'0 0.0
2017-Jun-26 09:25S 33°55' E 018°26'0 0.0
2017-Jun-26 08:58S 33°55' E 018°26'0 0.0
2017-Jun-26 08:28S 33°55' E 018°26'0 0.0
2017-Jun-26 07:58S 33°55' E 018°26'0 0.0
2017-Jun-26 07:25S 33°55' E 018°26'0 0.0
2017-Jun-26 06:58S 33°55' E 018°26'0 0.0
2017-Jun-26 06:28S 33°55' E 018°26'0 0.0
2017-Jun-26 05:58S 33°55' E 018°26'0 0.0
2017-Jun-26 05:28S 33°55' E 018°26'0 0.0
2017-Jun-26 04:58S 33°55' E 018°26'0 0.0
2017-Jun-26 04:25S 33°55' E 018°26'0 0.0
2017-Jun-26 03:58S 33°55' E 018°26'0 0.0
2017-Jun-26 03:28S 33°55' E 018°26'0 0.0
2017-Jun-26 02:58S 33°55' E 018°26'0 0.0
2017-Jun-26 02:28S 33°55' E 018°26'0 0.0
2017-Jun-26 01:58S 33°55' E 018°26'0 0.0
2017-Jun-26 01:28S 33°55' E 018°26'0 0.0
2017-Jun-26 00:58S 33°55' E 018°26'0 0.0
2017-Jun-26 00:28S 33°55' E 018°26'0 0.0
2017-Jun-25 23:58S 33°55' E 018°26'0 0.0
2017-Jun-25 23:25S 33°55' E 018°26'0 0.0
2017-Jun-25 22:58S 33°55' E 018°26'0 0.0
2017-Jun-25 22:25S 33°55' E 018°26'0 0.0
2017-Jun-25 21:58S 33°55' E 018°26'0 0.0
2017-Jun-25 21:28S 33°55' E 018°26'0 0.0
2017-Jun-25 20:58S 33°55' E 018°26'0 0.0
2017-Jun-25 20:28S 33°55' E 018°26'0 0.0
2017-Jun-25 19:58S 33°55' E 018°26'0 0.0
2017-Jun-25 19:31S 33°55' E 018°26'0 0.0
2017-Jun-25 18:58S 33°55' E 018°26'0 0.0
2017-Jun-25 18:28S 33°55' E 018°26'0 0.0
2017-Jun-25 17:58S 33°55' E 018°26'0 0.0
2017-Jun-25 17:28S 33°55' E 018°26'0 0.0
2017-Jun-25 16:58S 33°55' E 018°26'0 0.0
2017-Jun-25 16:28S 33°55' E 018°26'0 0.0
2017-Jun-25 15:58S 33°55' E 018°26'0 0.0
2017-Jun-25 15:28S 33°55' E 018°26'0 0.0
2017-Jun-25 14:58S 33°55' E 018°26'0 0.0
2017-Jun-25 14:28S 33°55' E 018°26'0 0.0
2017-Jun-25 13:28S 33°55' E 018°26'0 0.0
2017-Jun-25 12:58S 33°55' E 018°26'0 0.0
2017-Jun-25 12:28S 33°55' E 018°26'0 0.0
2017-Jun-25 11:58S 33°55' E 018°26'0 0.0
2017-Jun-25 11:28S 33°55' E 018°26'0 0.0
2017-Jun-25 10:58S 33°55' E 018°26'0 0.0
2017-Jun-25 10:28S 33°55' E 018°26'0 0.0
2017-Jun-25 09:58S 33°55' E 018°26'0 0.0
2017-Jun-25 09:25S 33°55' E 018°26'0 0.0
2017-Jun-25 08:55S 33°55' E 018°26'0 0.0
2017-Jun-25 08:31S 33°55' E 018°26'0 0.0
2017-Jun-25 07:58S 33°55' E 018°26'0 0.0
2017-Jun-25 07:31S 33°55' E 018°26'0 0.0
2017-Jun-25 07:00S 33°55' E 018°26'1 2.6
2017-Jun-25 06:30S 33°54' E 018°26'3 5.1
2017-Jun-25 06:00S 33°52' E 018°24'0 0.7
2017-Jun-25 05:30S 33°52' E 018°23'0 0.9
2017-Jun-25 05:00S 33°52' E 018°23'2 4.0
2017-Jun-25 04:30S 33°53' E 018°20'5 9.1
2017-Jun-25 03:59S 33°57' E 018°18'1311.4
2017-Jun-25 02:52S 34°09' E 018°11'1010.9
2017-Jun-25 01:58S 34°19' E 018°11'714.0
2017-Jun-25 01:29S 34°25' E 018°15'  
Track history (hours):
 
Tides and Currents Weather Stations Pressure Air Temp Water Temp Dewpoint Dewpoint Depression Visibility Wind Speed Wind Dir Waves Ship Positions

African Loon

Last reported at 2017-Jun-30 23:21 UTC. Time now 2017-Aug-21 01:02 UTC.
Position S 28°42' E 032°41'.
Warning: this ship's position is 51 days out of date.

Length 200 m; draft 11.5 m.

Type: Cargo ship. MMSI: 374319000.

Date/timePositionNaut miles runAvg speedWind from/ knotsBaromVisibWave heightAir tempDewpointWater temp
2017-Jun-30 23:21S 28°42' E 032°41'411.7
2017-Jun-30 23:00S 28°45' E 032°38'611.6
2017-Jun-30 22:30S 28°49' E 032°33'611.1
2017-Jun-30 22:00S 28°53' E 032°29'510.8
2017-Jun-30 21:30S 28°57' E 032°25'510.4
2017-Jun-30 21:00S 29°01' E 032°21'510.1
2017-Jun-30 20:30S 29°05' E 032°17'510.1
2017-Jun-30 20:00S 29°08' E 032°13'510.0
2017-Jun-30 19:31S 29°12' E 032°09'5 9.9
2017-Jun-30 19:01S 29°16' E 032°05'5 9.9
2017-Jun-30 18:30S 29°19' E 032°01'510.1
2017-Jun-30 18:00S 29°22' E 031°56'510.2
2017-Jun-30 17:31S 29°25' E 031°52'510.5
2017-Jun-30 17:00S 29°28' E 031°47'611.2
2017-Jun-30 16:30S 29°32' E 031°42'611.5
2017-Jun-30 16:00S 29°35' E 031°36'611.5
2017-Jun-30 15:30S 29°38' E 031°31'611.7
2017-Jun-30 15:01S 29°42' E 031°25'612.0
2017-Jun-30 14:30S 29°45' E 031°20'612.3
2017-Jun-30 14:01S 29°49' E 031°14'510.5
2017-Jun-30 13:31S 29°51' E 031°09'1 2.7
2017-Jun-30 13:01S 29°53' E 031°08'1 2.5
2017-Jun-30 12:30S 29°54' E 031°08'2 4.6
2017-Jun-30 12:00S 29°56' E 031°07'4 8.1
2017-Jun-30 11:31S 29°60' E 031°06'612.3
2017-Jun-30 11:00S 30°05' E 031°03'612.8
2017-Jun-30 10:30S 30°11' E 031°01'611.8
2017-Jun-30 10:00S 30°17' E 030°57'611.4
2017-Jun-30 09:30S 30°22' E 030°55'510.8
2017-Jun-30 09:00S 30°27' E 030°52'510.4
2017-Jun-30 08:30S 30°31' E 030°50'510.2
2017-Jun-30 07:59S 30°36' E 030°47'12 9.9
2017-Jun-30 06:46S 30°47' E 030°41'8 9.6
2017-Jun-30 05:54S 30°55' E 030°37'  
2017-Jun-27 05:32S 34°15' E 018°12'510.8
2017-Jun-27 05:03S 34°10' E 018°12'011.7
2017-Jun-27 05:01S 34°10' E 018°13'811.6
2017-Jun-27 04:18S 34°02' E 018°13'310.8
2017-Jun-27 04:00S 33°59' E 018°14'611.3
2017-Jun-27 03:30S 33°54' E 018°17'5 9.6
2017-Jun-27 03:00S 33°51' E 018°22'3 6.7
2017-Jun-27 02:30S 33°53' E 018°26'2 4.2
2017-Jun-27 02:00S 33°55' E 018°26'0 0.3
2017-Jun-27 01:25S 33°55' E 018°26'0 0.0
2017-Jun-27 00:58S 33°55' E 018°26'0 0.0
2017-Jun-27 00:28S 33°55' E 018°26'0 0.0
2017-Jun-26 23:58S 33°55' E 018°26'0 0.0
2017-Jun-26 23:28S 33°55' E 018°26'0 0.0
2017-Jun-26 22:58S 33°55' E 018°26'0 0.0
2017-Jun-26 22:28S 33°55' E 018°26'0 0.0
2017-Jun-26 21:58S 33°55' E 018°26'0 0.0
2017-Jun-26 21:28S 33°55' E 018°26'0 0.0
2017-Jun-26 20:58S 33°55' E 018°26'0 0.0
2017-Jun-26 20:28S 33°55' E 018°26'0 0.0
2017-Jun-26 19:58S 33°55' E 018°26'0 0.0
2017-Jun-26 19:28S 33°55' E 018°26'0 0.0
2017-Jun-26 18:58S 33°55' E 018°26'0 0.0
2017-Jun-26 18:28S 33°55' E 018°26'0 0.0
2017-Jun-26 17:58S 33°55' E 018°26'0 0.0
2017-Jun-26 17:28S 33°55' E 018°26'0 0.0
2017-Jun-26 16:58S 33°55' E 018°26'0 0.0
2017-Jun-26 16:28S 33°55' E 018°26'0 0.0
2017-Jun-26 15:55S 33°55' E 018°26'0 0.0
2017-Jun-26 15:25S 33°55' E 018°26'0 0.0
2017-Jun-26 14:58S 33°55' E 018°26'0 0.0
2017-Jun-26 14:28S 33°55' E 018°26'0 0.0
2017-Jun-26 13:28S 33°55' E 018°26'0 0.0
2017-Jun-26 12:55S 33°55' E 018°26'0 0.0
2017-Jun-26 12:25S 33°55' E 018°26'0 0.0
2017-Jun-26 11:58S 33°55' E 018°26'0 0.0
2017-Jun-26 11:25S 33°55' E 018°26'0 0.0
2017-Jun-26 10:58S 33°55' E 018°26'0 0.0
2017-Jun-26 10:28S 33°55' E 018°26'0 0.0
2017-Jun-26 09:58S 33°55' E 018°26'0 0.0
2017-Jun-26 09:25S 33°55' E 018°26'0 0.0
2017-Jun-26 08:58S 33°55' E 018°26'0 0.0
2017-Jun-26 08:28S 33°55' E 018°26'0 0.0
2017-Jun-26 07:58S 33°55' E 018°26'0 0.0
2017-Jun-26 07:25S 33°55' E 018°26'0 0.0
2017-Jun-26 06:58S 33°55' E 018°26'0 0.0
2017-Jun-26 06:28S 33°55' E 018°26'0 0.0
2017-Jun-26 05:58S 33°55' E 018°26'0 0.0
2017-Jun-26 05:28S 33°55' E 018°26'0 0.0
2017-Jun-26 04:58S 33°55' E 018°26'0 0.0
2017-Jun-26 04:25S 33°55' E 018°26'0 0.0
2017-Jun-26 03:58S 33°55' E 018°26'0 0.0
2017-Jun-26 03:28S 33°55' E 018°26'0 0.0
2017-Jun-26 02:58S 33°55' E 018°26'0 0.0
2017-Jun-26 02:28S 33°55' E 018°26'0 0.0
2017-Jun-26 01:58S 33°55' E 018°26'0 0.0
2017-Jun-26 01:28S 33°55' E 018°26'0 0.0
2017-Jun-26 00:58S 33°55' E 018°26'0 0.0
2017-Jun-26 00:28S 33°55' E 018°26'0 0.0
2017-Jun-25 23:58S 33°55' E 018°26'0 0.0
2017-Jun-25 23:25S 33°55' E 018°26'0 0.0
2017-Jun-25 22:58S 33°55' E 018°26'0 0.0
2017-Jun-25 22:25S 33°55' E 018°26'0 0.0
2017-Jun-25 21:58S 33°55' E 018°26'0 0.0
2017-Jun-25 21:28S 33°55' E 018°26'0 0.0
2017-Jun-25 20:58S 33°55' E 018°26'0 0.0
2017-Jun-25 20:28S 33°55' E 018°26'0 0.0
2017-Jun-25 19:58S 33°55' E 018°26'0 0.0
2017-Jun-25 19:31S 33°55' E 018°26'0 0.0
2017-Jun-25 18:58S 33°55' E 018°26'0 0.0
2017-Jun-25 18:28S 33°55' E 018°26'0 0.0
2017-Jun-25 17:58S 33°55' E 018°26'0 0.0
2017-Jun-25 17:28S 33°55' E 018°26'0 0.0
2017-Jun-25 16:58S 33°55' E 018°26'0 0.0
2017-Jun-25 16:28S 33°55' E 018°26'0 0.0
2017-Jun-25 15:58S 33°55' E 018°26'0 0.0
2017-Jun-25 15:28S 33°55' E 018°26'0 0.0
2017-Jun-25 14:58S 33°55' E 018°26'0 0.0
2017-Jun-25 14:28S 33°55' E 018°26'0 0.0
2017-Jun-25 13:28S 33°55' E 018°26'0 0.0
2017-Jun-25 12:58S 33°55' E 018°26'0 0.0
2017-Jun-25 12:28S 33°55' E 018°26'0 0.0
2017-Jun-25 11:58S 33°55' E 018°26'0 0.0
2017-Jun-25 11:28S 33°55' E 018°26'0 0.0
2017-Jun-25 10:58S 33°55' E 018°26'0 0.0
2017-Jun-25 10:28S 33°55' E 018°26'0 0.0
2017-Jun-25 09:58S 33°55' E 018°26'0 0.0
2017-Jun-25 09:25S 33°55' E 018°26'0 0.0
2017-Jun-25 08:55S 33°55' E 018°26'0 0.0
2017-Jun-25 08:31S 33°55' E 018°26'0 0.0
2017-Jun-25 07:58S 33°55' E 018°26'0 0.0
2017-Jun-25 07:31S 33°55' E 018°26'0 0.0
2017-Jun-25 07:00S 33°55' E 018°26'1 2.6
2017-Jun-25 06:30S 33°54' E 018°26'3 5.1
2017-Jun-25 06:00S 33°52' E 018°24'0 0.7
2017-Jun-25 05:30S 33°52' E 018°23'0 0.9
2017-Jun-25 05:00S 33°52' E 018°23'2 4.0
2017-Jun-25 04:30S 33°53' E 018°20'5 9.1
2017-Jun-25 03:59S 33°57' E 018°18'1311.4
2017-Jun-25 02:52S 34°09' E 018°11'1010.9
2017-Jun-25 01:58S 34°19' E 018°11'714.0
2017-Jun-25 01:29S 34°25' E 018°15'  

Dump ship's entire track history